Time,TemperatureF,DewpointF,PressureIn,WindDirection,WindDirectionDegrees,WindSpeedMPH,WindSpeedGustMPH,Humidity,HourlyPrecipIn,Conditions,Clouds,dailyrainin,SoftwareType,DateUTC
2013-03-22 00:00:00,29.7,13.3,29.94,NNW,337,3.0,6.0,50,0.00,,,-99.99,WeatherLink 5.4,2013-03-22 04:00:00,
2013-03-22 00:30:00,29.7,13.8,29.94,NNW,337,2.0,6.0,51,0.00,,,-99.99,WeatherLink 5.4,2013-03-22 04:30:00,
2013-03-22 01:00:00,29.2,14.6,29.94,NW,315,3.0,6.0,54,0.00,,,-99.99,WeatherLink 5.4,2013-03-22 05:00:00,
2013-03-22 01:30:00,28.7,13.7,29.93,NW,315,3.0,6.0,53,0.00,,,-99.99,WeatherLink 5.4,2013-03-22 05:30:00,
2013-03-22 02:00:00,28.8,14.2,29.94,North,0,2.0,6.0,54,0.00,,,-99.99,WeatherLink 5.4,2013-03-22 06:00:00,
2013-03-22 02:30:00,28.3,13.8,29.94,North,0,1.0,4.0,54,0.00,,,-99.99,WeatherLink 5.4,2013-03-22 06:30:00,
2013-03-22 03:00:00,28.1,14.4,29.96,North,0,1.0,4.0,56,0.00,,,-99.99,WeatherLink 5.4,2013-03-22 07:00:00,
2013-03-22 03:30:00,27.6,14.3,29.96,North,-999,0.0,1.0,57,0.00,,,-99.99,WeatherLink 5.4,2013-03-22 07:30:00,
2013-03-22 04:00:00,27.5,14.2,29.95,North,0,0.0,3.0,57,0.00,,,-99.99,WeatherLink 5.4,2013-03-22 08:00:00,
2013-03-22 04:30:00,27.8,14.5,29.95,North,0,2.0,7.0,57,0.00,,,-99.99,WeatherLink 5.4,2013-03-22 08:30:00,
2013-03-22 05:00:00,27.7,16.7,29.97,North,0,1.0,4.0,63,0.00,,,-99.99,WeatherLink 5.4,2013-03-22 09:00:00,
2013-03-22 05:30:00,26.3,16.5,29.97,ESE,112,2.0,4.0,66,0.00,,,-99.99,WeatherLink 5.4,2013-03-22 09:30:00,
2013-03-22 06:00:00,26.5,16.0,29.97,ESE,112,1.0,3.0,64,0.00,,,-99.99,WeatherLink 5.4,2013-03-22 10:00:00,
2013-03-22 06:30:00,26.9,15.6,29.98,ESE,112,0.0,3.0,62,0.00,,,-99.99,WeatherLink 5.4,2013-03-22 10:30:00,
2013-03-22 07:00:00,27.6,18.8,29.98,ESE,112,0.0,2.0,69,0.00,,,-99.99,WeatherLink 5.4,2013-03-22 11:00:00,
2013-03-22 07:30:00,27.5,18.0,29.99,ESE,112,1.0,3.0,67,0.00,,,-99.99,WeatherLink 5.4,2013-03-22 11:30:00,
2013-03-22 08:00:00,27.5,16.9,29.98,ESE,112,2.0,4.0,64,0.00,,,-99.99,WeatherLink 5.4,2013-03-22 12:00:00,
2013-03-22 08:05:00,28.1,17.1,29.98,ESE,122,0.0,2.0,63,0.00,,OVC,0.00,VWS V12.07,2013-03-22 12:05:00,
2013-03-22 08:30:00,28.2,18.3,29.99,ESE,112,0.0,1.0,66,0.00,,,-99.99,WeatherLink 5.4,2013-03-22 12:30:00,
2013-03-22 09:00:00,28.6,19.0,30.00,ESE,112,0.0,2.0,67,0.00,,,-99.99,WeatherLink 5.4,2013-03-22 13:00:00,
2013-03-22 09:30:00,29.0,18.0,30.01,ESE,112,0.0,2.0,63,0.00,,,-99.99,WeatherLink 5.4,2013-03-22 13:30:00,
2013-03-22 10:00:00,30.4,17.8,30.02,North,-999,0.0,1.0,59,0.00,,,-99.99,WeatherLink 5.4,2013-03-22 14:00:00,
2013-03-22 10:30:00,32.0,16.8,30.01,ESE,112,1.0,4.0,53,0.00,,,-99.99,WeatherLink 5.4,2013-03-22 14:30:00,
2013-03-22 11:00:00,33.6,19.1,30.00,NNW,337,2.0,5.0,55,0.00,,,-99.99,WeatherLink 5.4,2013-03-22 15:00:00,
2013-03-22 11:30:00,34.7,17.9,30.00,NNW,337,4.0,7.0,50,0.00,,,-99.99,WeatherLink 5.4,2013-03-22 15:30:00,
2013-03-22 12:00:00,36.0,19.1,30.01,NNW,337,2.0,5.0,50,0.00,,,-99.99,WeatherLink 5.4,2013-03-22 16:00:00,
2013-03-22 12:30:00,37.6,19.7,30.01,NNW,337,1.0,4.0,48,0.00,,,-99.99,WeatherLink 5.4,2013-03-22 16:30:00,
2013-03-22 13:00:00,39.1,19.5,30.01,SSE,157,1.0,6.0,45,0.00,,,-99.99,WeatherLink 5.4,2013-03-22 17:00:00,
2013-03-22 13:30:00,39.0,18.9,30.01,SSE,157,3.0,7.0,44,0.00,,,-99.99,WeatherLink 5.4,2013-03-22 17:30:00,
2013-03-22 14:00:00,39.8,19.1,30.00,SSE,157,1.0,5.0,43,0.00,,,-99.99,WeatherLink 5.4,2013-03-22 18:00:00,
2013-03-22 14:30:00,41.0,22.8,30.00,SSE,157,2.0,5.0,48,0.00,,,-99.99,WeatherLink 5.4,2013-03-22 18:30:00,
2013-03-22 15:00:00,41.9,24.6,30.00,SSE,157,0.0,3.0,50,0.00,,,-99.99,WeatherLink 5.4,2013-03-22 19:00:00,
2013-03-22 15:30:00,42.6,27.1,29.99,SSE,157,1.0,4.0,54,0.00,,,-99.99,WeatherLink 5.4,2013-03-22 19:30:00,
2013-03-22 16:00:00,43.1,27.6,29.97,SSE,157,0.0,4.0,54,0.00,,,-99.99,WeatherLink 5.4,2013-03-22 20:00:00,
2013-03-22 16:30:00,43.7,28.1,29.97,SSE,157,1.0,5.0,54,0.00,,,-99.99,WeatherLink 5.4,2013-03-22 20:30:00,
2013-03-22 17:00:00,43.9,27.4,29.97,NW,315,3.0,5.0,52,0.00,,,-99.99,WeatherLink 5.4,2013-03-22 21:00:00,
2013-03-22 17:30:00,43.9,27.4,29.98,NNW,337,3.0,7.0,52,0.00,,,-99.99,WeatherLink 5.4,2013-03-22 21:30:00,
2013-03-22 18:00:00,44.1,28.5,29.98,NNW,337,3.0,6.0,54,0.00,,,-99.99,WeatherLink 5.4,2013-03-22 22:00:00,
2013-03-22 18:30:00,44.1,28.9,29.98,NNW,337,1.0,4.0,55,0.00,,,-99.99,WeatherLink 5.4,2013-03-22 22:30:00,
2013-03-22 19:00:00,43.7,29.0,29.98,NNW,337,1.0,3.0,56,0.00,,,-99.99,WeatherLink 5.4,2013-03-22 23:00:00,
2013-03-22 19:30:00,43.4,29.2,29.99,NNW,337,0.0,1.0,57,0.00,,,-99.99,WeatherLink 5.4,2013-03-22 23:30:00,
2013-03-22 19:35:00,43.2,29.0,29.99,NNW,327,0.0,0.0,57,0.00,,OVC,0.00,VWS V12.07,2013-03-22 23:35:00,
2013-03-22 20:00:00,43.0,29.6,29.99,North,-999,0.0,0.0,59,0.00,,,-99.99,WeatherLink 5.4,2013-03-23 00:00:00,
2013-03-22 20:30:00,42.1,33.0,29.99,North,-999,0.0,0.0,70,0.00,,,-99.99,WeatherLink 5.4,2013-03-23 00:30:00,
2013-03-22 21:00:00,41.1,33.4,30.00,North,-999,0.0,0.0,74,0.00,,,-99.99,WeatherLink 5.4,2013-03-23 01:00:00,
2013-03-22 21:01:00,41.1,33.4,30.00,North,-999,0.0,0.0,74,0.00,,,-99.99,WeatherLink 5.4,2013-03-23 01:01:00,
2013-03-22 21:30:00,41.2,32.5,30.01,North,-999,0.0,0.0,71,0.00,,,-99.99,WeatherLink 5.4,2013-03-23 01:30:00,
2013-03-22 22:00:00,41.7,31.2,30.01,NNW,337,1.0,5.0,66,0.00,,,-99.99,WeatherLink 5.4,2013-03-23 02:00:00,
2013-03-22 22:30:00,42.1,31.6,30.02,NNW,337,3.0,6.0,66,0.00,,,-99.99,WeatherLink 5.4,2013-03-23 02:30:00,
2013-03-22 23:00:00,41.9,31.4,30.01,NNW,337,2.0,5.0,66,0.00,,,-99.99,WeatherLink 5.4,2013-03-23 03:00:00,
2013-03-22 23:30:00,42.0,31.5,30.02,NNW,337,1.0,4.0,66,0.00,,,-99.99,WeatherLink 5.4,2013-03-23 03:30:00,